createdAt,value
2018-06-09T00:00:02.449Z,17.80
2018-06-09T00:02:31.648Z,17.90
2018-06-09T00:05:00.858Z,17.90
2018-06-09T00:07:30.042Z,17.90
2018-06-09T00:09:59.254Z,17.80
2018-06-09T00:12:28.482Z,17.80
2018-06-09T00:14:57.654Z,17.90
2018-06-09T00:17:26.866Z,17.60
2018-06-09T00:19:56.039Z,17.50
2018-06-09T00:22:25.249Z,17.50
2018-06-09T00:24:54.502Z,17.80
2018-06-09T00:27:23.730Z,17.90
2018-06-09T00:29:52.899Z,17.90
2018-06-09T00:32:22.408Z,17.80
2018-06-09T00:34:51.606Z,17.90
2018-06-09T00:37:20.798Z,17.90
2018-06-09T00:39:49.972Z,17.80
2018-06-09T00:42:19.483Z,17.70
2018-06-09T00:44:48.632Z,17.80
2018-06-09T00:47:17.821Z,17.70
2018-06-09T00:49:47.095Z,17.70
2018-06-09T00:52:16.314Z,17.70
2018-06-09T00:54:45.458Z,17.80
2018-06-09T00:57:14.629Z,17.80
2018-06-09T00:59:43.790Z,17.80
2018-06-09T01:02:12.964Z,17.80
2018-06-09T01:04:42.242Z,17.70
2018-06-09T01:07:11.434Z,17.70
2018-06-09T01:09:40.598Z,17.70
2018-06-09T01:12:09.821Z,17.70
2018-06-09T01:14:38.971Z,17.70
2018-06-09T01:17:08.102Z,17.70
2018-06-09T01:19:37.318Z,17.70
2018-06-09T01:22:06.489Z,17.70
2018-06-09T01:24:35.664Z,17.50
2018-06-09T01:27:04.820Z,17.40
2018-06-09T01:29:33.997Z,17.40
2018-06-09T01:32:03.223Z,17.50
2018-06-09T01:34:32.406Z,17.60
2018-06-09T01:37:01.560Z,17.70
2018-06-09T01:39:30.758Z,17.80
2018-06-09T01:41:59.916Z,17.80
2018-06-09T01:44:29.122Z,17.60
2018-06-09T01:46:58.276Z,17.30
2018-06-09T01:51:56.157Z,17.10
2018-06-09T01:54:25.321Z,17.10
2018-06-09T01:56:54.507Z,17.40
2018-06-09T01:59:23.715Z,17.60
2018-06-09T02:01:52.866Z,17.60
2018-06-09T02:04:22.045Z,17.60
2018-06-09T02:06:51.186Z,17.50
2018-06-09T02:09:20.381Z,17.70
2018-06-09T02:11:49.560Z,17.80
2018-06-09T02:14:18.766Z,17.90
2018-06-09T02:16:47.972Z,17.90
2018-06-09T02:19:17.154Z,17.70
2018-06-09T02:21:46.306Z,17.50
2018-06-09T02:24:15.521Z,17.70
2018-06-09T02:26:44.681Z,17.80
2018-06-09T02:29:13.865Z,17.80
2018-06-09T02:31:43.018Z,17.60
2018-06-09T02:34:12.199Z,17.60
2018-06-09T02:36:41.362Z,17.70
2018-06-09T02:39:10.536Z,17.70
2018-06-09T02:41:39.699Z,17.70
2018-06-09T02:44:08.888Z,17.70
2018-06-09T02:46:38.034Z,17.70
2018-06-09T02:49:07.202Z,17.70
2018-06-09T02:51:36.373Z,17.70
2018-06-09T02:54:05.705Z,17.70
2018-06-09T02:56:34.867Z,17.60
2018-06-09T02:59:04.070Z,17.70
2018-06-09T03:01:33.223Z,17.70
2018-06-09T03:04:02.574Z,17.80
2018-06-09T03:06:31.744Z,17.80
2018-06-09T03:09:00.927Z,17.80
2018-06-09T03:11:30.087Z,17.60
2018-06-09T03:13:59.255Z,17.50
2018-06-09T03:16:28.453Z,17.50
2018-06-09T03:18:57.626Z,17.60
2018-06-09T03:21:26.807Z,17.80
2018-06-09T03:23:55.959Z,17.90
2018-06-09T03:26:25.128Z,17.90
2018-06-09T03:28:54.369Z,18.00
2018-06-09T03:31:23.538Z,17.80
2018-06-09T03:33:52.736Z,17.60
2018-06-09T03:36:21.905Z,17.60
2018-06-09T03:38:51.055Z,17.70
2018-06-09T03:41:20.238Z,17.80
2018-06-09T03:43:49.443Z,17.60
2018-06-09T03:46:18.622Z,17.60
2018-06-09T03:48:47.863Z,17.90
2018-06-09T03:51:17.032Z,17.90
2018-06-09T03:53:46.239Z,17.80
2018-06-09T03:56:15.424Z,17.80
2018-06-09T03:58:44.583Z,17.90
2018-06-09T04:01:13.758Z,17.90
2018-06-09T04:03:42.915Z,17.80
2018-06-09T04:06:12.107Z,17.80
2018-06-09T04:08:41.272Z,17.70
2018-06-09T04:11:10.462Z,17.90
2018-06-09T04:13:39.823Z,17.90
2018-06-09T04:16:09.019Z,17.70
2018-06-09T04:18:38.191Z,17.80
2018-06-09T04:21:07.379Z,17.90
2018-06-09T04:23:36.558Z,17.90
2018-06-09T04:26:05.782Z,17.80
2018-06-09T04:28:34.954Z,17.90
2018-06-09T04:31:04.148Z,18.10
2018-06-09T04:33:33.400Z,18.00
2018-06-09T04:36:02.578Z,18.10
2018-06-09T04:38:31.717Z,18.30
2018-06-09T04:41:00.898Z,18.20
2018-06-09T04:43:30.063Z,18.20
2018-06-09T04:45:59.279Z,18.20
2018-06-09T04:48:28.444Z,18.10
2018-06-09T04:50:57.598Z,18.00
2018-06-09T04:53:26.818Z,18.10
2018-06-09T04:55:55.963Z,18.20
2018-06-09T04:58:26.476Z,18.30
2018-06-09T05:00:55.823Z,18.30
2018-06-09T05:03:25.332Z,18.40
2018-06-09T05:05:54.547Z,18.50
2018-06-09T05:08:23.748Z,18.50
2018-06-09T05:10:52.921Z,18.40
2018-06-09T05:13:22.194Z,18.50
2018-06-09T05:15:51.438Z,18.60
2018-06-09T05:18:20.686Z,18.50
2018-06-09T05:20:49.852Z,18.50
2018-06-09T05:23:19.037Z,18.50
2018-06-09T05:25:48.928Z,18.70
2018-06-09T05:28:18.108Z,18.80
2018-06-09T05:30:47.277Z,18.90
2018-06-09T05:33:16.601Z,18.80
2018-06-09T05:35:45.766Z,18.90
2018-06-09T05:38:14.947Z,18.90
2018-06-09T05:40:44.699Z,18.80
2018-06-09T05:43:13.973Z,18.70
2018-06-09T05:45:43.135Z,18.70
2018-06-09T05:48:12.307Z,19.00
2018-06-09T05:50:41.445Z,19.00
2018-06-09T05:53:10.782Z,19.10
2018-06-09T05:55:39.948Z,19.10
2018-06-09T05:58:09.127Z,19.10
2018-06-09T06:00:38.281Z,19.00
2018-06-09T06:03:07.466Z,19.60
2018-06-09T06:05:36.650Z,19.60
2018-06-09T06:08:05.999Z,19.90
2018-06-09T06:10:35.142Z,19.30
2018-06-09T06:13:04.453Z,19.40
2018-06-09T06:15:33.623Z,19.60
2018-06-09T06:18:02.774Z,19.80
2018-06-09T06:20:31.940Z,19.90
2018-06-09T06:23:01.090Z,20.00
2018-06-09T06:25:30.302Z,20.00
2018-06-09T06:27:59.464Z,19.90
2018-06-09T06:30:28.691Z,19.90
2018-06-09T06:32:57.903Z,19.90
2018-06-09T06:35:27.093Z,19.90
2018-06-09T06:37:56.247Z,19.90
2018-06-09T06:40:25.455Z,19.90
2018-06-09T06:42:54.593Z,20.00
2018-06-09T06:45:23.773Z,20.00
2018-06-09T06:47:52.913Z,20.00
2018-06-09T06:50:22.110Z,20.20
2018-06-09T06:52:51.535Z,20.40
2018-06-09T06:55:20.732Z,20.70
2018-06-09T06:57:49.886Z,20.80
2018-06-09T07:00:19.066Z,20.70
2018-06-09T07:02:48.350Z,20.80
2018-06-09T07:05:17.538Z,20.90
2018-06-09T07:07:46.708Z,20.80
2018-06-09T07:10:15.869Z,20.70
2018-06-09T07:12:45.330Z,20.90
2018-06-09T07:15:14.530Z,20.90
2018-06-09T07:17:43.674Z,21.10
2018-06-09T07:20:12.838Z,21.30
2018-06-09T07:22:41.975Z,21.40
2018-06-09T07:25:11.151Z,21.30
2018-06-09T07:27:40.281Z,21.40
2018-06-09T07:30:09.457Z,21.40
2018-06-09T07:32:38.673Z,21.50
2018-06-09T07:35:07.904Z,21.30
2018-06-09T07:37:37.027Z,21.30
2018-06-09T07:40:06.209Z,21.30
2018-06-09T07:42:35.380Z,21.50
2018-06-09T07:45:04.589Z,21.90
2018-06-09T07:47:33.722Z,22.10
2018-06-09T07:50:02.885Z,22.30
2018-06-09T07:52:32.045Z,22.30
2018-06-09T07:55:01.229Z,22.40
2018-06-09T07:57:30.373Z,22.40
2018-06-09T07:59:59.551Z,22.50
2018-06-09T08:02:28.711Z,22.60
2018-06-09T08:04:57.851Z,22.70
2018-06-09T08:07:27.019Z,22.40
2018-06-09T08:09:56.161Z,22.20
2018-06-09T08:12:25.402Z,22.20
2018-06-09T08:14:54.557Z,22.50
2018-06-09T08:17:23.740Z,22.70
2018-06-09T08:19:52.873Z,22.90
2018-06-09T08:22:22.154Z,23.10
2018-06-09T08:27:20.132Z,22.70
2018-06-09T08:29:49.257Z,22.60
2018-06-09T08:32:18.431Z,22.70
2018-06-09T08:34:47.563Z,23.20
2018-06-09T08:37:16.719Z,23.10
2018-06-09T08:39:45.841Z,23.20
2018-06-09T08:42:15.050Z,23.40
2018-06-09T08:44:44.199Z,23.60
2018-06-09T08:47:13.361Z,23.60
2018-06-09T08:49:42.517Z,23.60
2018-06-09T08:52:12.390Z,23.40
2018-06-09T08:54:41.538Z,23.20
2018-06-09T08:57:10.717Z,23.50
2018-06-09T08:59:40.033Z,23.60
2018-06-09T09:02:09.211Z,23.90
2018-06-09T09:04:38.353Z,23.50
2018-06-09T09:07:07.528Z,23.80
2018-06-09T09:09:36.669Z,24.10
2018-06-09T09:12:07.203Z,24.30
2018-06-09T09:14:36.347Z,24.20
2018-06-09T09:17:05.615Z,24.10
2018-06-09T09:19:34.802Z,24.10
2018-06-09T09:22:03.947Z,24.30
2018-06-09T09:24:33.122Z,24.40
2018-06-09T09:27:02.271Z,24.60
2018-06-09T09:29:31.414Z,25.00
2018-06-09T09:32:00.627Z,25.10
2018-06-09T09:34:29.793Z,24.90
2018-06-09T09:36:58.933Z,24.90
2018-06-09T09:39:28.095Z,25.00
2018-06-09T09:41:57.281Z,25.10
2018-06-09T09:44:26.443Z,25.30
2018-06-09T09:46:55.620Z,25.20
2018-06-09T09:49:24.782Z,25.40
2018-06-09T09:51:53.951Z,25.40
2018-06-09T09:56:51.819Z,25.60
2018-06-09T09:59:20.991Z,25.60
2018-06-09T10:01:50.191Z,25.40
2018-06-09T10:04:19.371Z,25.50
2018-06-09T10:06:48.511Z,25.50
2018-06-09T10:09:17.690Z,25.50
2018-06-09T10:11:46.971Z,25.80
2018-06-09T10:14:16.169Z,25.90
2018-06-09T10:16:45.312Z,25.70
2018-06-09T10:19:14.477Z,25.80
2018-06-09T10:21:43.645Z,25.20
2018-06-09T10:24:12.802Z,25.20
2018-06-09T10:26:41.946Z,25.70
2018-06-09T10:29:11.118Z,25.80
2018-06-09T10:31:40.320Z,25.80
2018-06-09T10:34:09.493Z,26.10
2018-06-09T10:36:38.638Z,26.30
2018-06-09T10:39:08.467Z,26.00
2018-06-09T10:41:37.603Z,26.40
2018-06-09T10:44:06.773Z,26.70
2018-06-09T10:46:35.927Z,26.80
2018-06-09T10:49:05.127Z,26.90
2018-06-09T10:54:03.126Z,26.80
2018-06-09T10:56:32.263Z,26.70
2018-06-09T10:59:01.406Z,26.90
2018-06-09T11:01:30.717Z,26.90
2018-06-09T11:03:59.839Z,26.80
2018-06-09T11:08:57.741Z,26.70
2018-06-09T11:11:26.944Z,26.90
2018-06-09T11:13:56.097Z,26.80
2018-06-09T11:16:25.285Z,27.20
2018-06-09T11:18:54.418Z,27.30
2018-06-09T11:21:23.586Z,27.20
2018-06-09T11:23:52.739Z,27.30
2018-06-09T11:26:21.923Z,27.40
2018-06-09T11:28:51.057Z,27.40
2018-06-09T11:31:20.223Z,27.30
2018-06-09T11:33:49.362Z,27.40
2018-06-09T11:36:18.546Z,27.60
2018-06-09T11:38:47.712Z,27.70
2018-06-09T11:41:16.971Z,27.60
2018-06-09T11:43:46.103Z,27.50
2018-06-09T11:46:15.354Z,27.30
2018-06-09T11:48:44.493Z,27.50
2018-06-09T11:51:13.657Z,27.60
2018-06-09T11:53:42.793Z,27.50
2018-06-09T11:56:11.947Z,27.70
2018-06-09T11:58:41.129Z,27.50
2018-06-09T12:01:10.454Z,27.70
2018-06-09T12:03:39.761Z,27.80
2018-06-09T12:06:08.906Z,27.90
2018-06-09T12:08:38.029Z,27.90
2018-06-09T12:11:07.291Z,28.00
2018-06-09T12:13:36.465Z,27.90
2018-06-09T12:16:05.855Z,27.90
2018-06-09T12:18:35.015Z,28.00
2018-06-09T12:21:04.178Z,28.10
2018-06-09T12:23:33.331Z,28.10
2018-06-09T12:26:02.493Z,28.10
2018-06-09T12:28:31.634Z,28.20
2018-06-09T12:31:00.807Z,28.00
2018-06-09T12:33:29.962Z,28.20
2018-06-09T12:38:27.837Z,28.40
2018-06-09T12:40:57.121Z,28.40
2018-06-09T12:43:26.272Z,28.00
2018-06-09T12:45:55.396Z,28.00
2018-06-09T12:48:24.622Z,27.90
2018-06-09T12:50:53.791Z,27.80
2018-06-09T12:53:22.954Z,27.80
2018-06-09T12:55:52.122Z,28.00
2018-06-09T12:58:21.291Z,28.10
2018-06-09T13:00:50.414Z,28.10
2018-06-09T13:03:19.591Z,28.20
2018-06-09T13:05:48.800Z,28.20
2018-06-09T13:08:17.963Z,28.10
2018-06-09T13:10:47.096Z,28.40
2018-06-09T13:13:16.294Z,28.30
2018-06-09T13:15:45.454Z,28.20
2018-06-09T13:18:14.630Z,28.10
2018-06-09T13:20:43.839Z,27.90
2018-06-09T13:23:12.997Z,28.10
2018-06-09T13:25:42.130Z,28.00
2018-06-09T13:28:11.280Z,27.80
2018-06-09T13:30:40.524Z,27.80
2018-06-09T13:33:09.687Z,28.00
2018-06-09T13:35:38.817Z,28.10
2018-06-09T13:38:07.974Z,28.30
2018-06-09T13:40:37.132Z,28.40
2018-06-09T13:43:06.307Z,28.30
2018-06-09T13:45:35.483Z,27.80
2018-06-09T13:48:04.675Z,28.10
2018-06-09T13:50:33.822Z,28.00
2018-06-09T13:53:02.978Z,28.10
2018-06-09T13:55:32.131Z,28.10
2018-06-09T13:58:01.299Z,28.00
2018-06-09T14:00:30.682Z,28.30
2018-06-09T14:02:59.842Z,28.40
2018-06-09T14:05:29.008Z,28.50
2018-06-09T14:07:58.155Z,28.30
2018-06-09T14:10:27.359Z,28.20
2018-06-09T14:12:56.549Z,28.30
2018-06-09T14:15:25.715Z,28.30
2018-06-09T14:17:54.906Z,28.20
2018-06-09T14:20:24.058Z,28.20
2018-06-09T14:22:53.324Z,28.00
2018-06-09T14:25:22.458Z,28.10
2018-06-09T14:27:51.586Z,28.10
2018-06-09T14:30:20.737Z,28.10
2018-06-09T14:32:49.979Z,28.20
2018-06-09T14:35:19.045Z,28.20
2018-06-09T14:40:17.049Z,28.20
2018-06-09T14:42:46.183Z,28.10
2018-06-09T14:45:15.341Z,28.00
2018-06-09T14:47:44.477Z,28.00
2018-06-09T14:50:13.737Z,28.10
2018-06-09T14:52:42.881Z,28.10
2018-06-09T14:55:12.051Z,28.10
2018-06-09T14:57:41.175Z,28.00
2018-06-09T15:00:10.346Z,28.00
2018-06-09T15:02:39.474Z,27.90
2018-06-09T15:05:08.655Z,28.00
2018-06-09T15:07:37.802Z,28.10
2018-06-09T15:10:07.090Z,28.00
2018-06-09T15:12:36.255Z,28.00
2018-06-09T15:15:05.451Z,27.90
2018-06-09T15:17:34.607Z,27.80
2018-06-09T15:20:03.879Z,27.60
2018-06-09T15:22:33.106Z,27.60
2018-06-09T15:25:02.244Z,27.70
2018-06-09T15:27:31.666Z,27.70
2018-06-09T15:30:02.671Z,27.70
2018-06-09T15:32:35.108Z,27.70
2018-06-09T15:35:06.192Z,27.60
2018-06-09T15:37:36.417Z,27.60
2018-06-09T15:40:12.311Z,27.70
2018-06-09T15:42:43.996Z,27.70
2018-06-09T15:45:16.812Z,27.60
2018-06-09T15:47:49.640Z,27.60
2018-06-09T15:50:21.921Z,27.60
2018-06-09T15:52:52.749Z,27.50
2018-06-09T15:55:25.361Z,27.40
2018-06-09T15:57:57.403Z,27.40
2018-06-09T16:00:29.605Z,27.40
2018-06-09T16:03:03.328Z,27.30
2018-06-09T16:05:36.436Z,26.90
2018-06-09T16:08:06.740Z,26.80
2018-06-09T16:10:37.107Z,26.80
2018-06-09T16:13:07.164Z,26.70
2018-06-09T16:15:38.808Z,26.80
2018-06-09T16:18:09.869Z,26.80
2018-06-09T16:20:40.994Z,26.70
2018-06-09T16:23:11.340Z,26.50
2018-06-09T16:25:41.483Z,26.50
2018-06-09T16:28:11.678Z,26.40
2018-06-09T16:30:42.768Z,26.40
2018-06-09T16:33:13.041Z,26.40
2018-06-09T16:35:43.214Z,26.50
2018-06-09T16:38:15.004Z,26.40
2018-06-09T16:40:45.141Z,26.10
2018-06-09T16:43:15.142Z,25.80
2018-06-09T16:45:45.472Z,25.70
2018-06-09T16:48:16.130Z,25.60
2018-06-09T16:50:46.318Z,25.50
2018-06-09T16:53:16.437Z,25.40
2018-06-09T16:55:46.479Z,25.40
2018-06-09T16:58:17.617Z,25.20
2018-06-09T17:00:49.476Z,25.20
2018-06-09T17:03:20.946Z,25.10
2018-06-09T17:05:52.246Z,25.00
2018-06-09T17:08:23.521Z,25.00
2018-06-09T17:10:54.751Z,25.10
2018-06-09T17:13:25.784Z,25.20
2018-06-09T17:15:56.382Z,25.20
2018-06-09T17:18:27.857Z,25.20
2018-06-09T17:20:58.309Z,25.10
2018-06-09T17:23:28.290Z,25.10
2018-06-09T17:25:58.467Z,25.00
2018-06-09T17:28:29.230Z,24.90
2018-06-09T17:30:59.349Z,24.80
2018-06-09T17:33:29.240Z,24.70
2018-06-09T17:35:59.836Z,24.70
2018-06-09T17:38:29.886Z,24.60
2018-06-09T17:40:59.828Z,24.60
2018-06-09T17:43:32.149Z,24.50
2018-06-09T17:46:05.117Z,24.50
2018-06-09T17:48:39.441Z,24.50
2018-06-09T17:51:09.864Z,24.50
2018-06-09T17:53:39.909Z,24.60
2018-06-09T17:56:09.969Z,24.60
2018-06-09T17:58:40.684Z,24.60
2018-06-09T18:01:11.037Z,24.50
2018-06-09T18:03:41.394Z,24.40
2018-06-09T18:06:11.663Z,24.40
2018-06-09T18:08:41.824Z,24.30
2018-06-09T18:11:13.238Z,24.20
2018-06-09T18:13:43.945Z,24.20
2018-06-09T18:16:15.419Z,24.20
2018-06-09T18:18:47.124Z,24.10
2018-06-09T18:21:18.310Z,24.10
2018-06-09T18:23:48.506Z,24.10
2018-06-09T18:26:18.655Z,24.20
2018-06-09T18:28:48.859Z,24.10
2018-06-09T18:31:19.145Z,24.10
2018-06-09T18:33:49.475Z,24.00
2018-06-09T18:36:19.729Z,23.80
2018-06-09T18:38:49.827Z,23.70
2018-06-09T18:41:20.126Z,23.60
2018-06-09T18:43:50.117Z,23.50
2018-06-09T18:46:20.339Z,23.40
2018-06-09T18:48:50.298Z,23.40
2018-06-09T18:51:20.434Z,23.30
2018-06-09T18:53:51.300Z,23.40
2018-06-09T18:56:21.296Z,23.30
2018-06-09T18:58:51.476Z,23.40
2018-06-09T19:01:21.547Z,23.40
2018-06-09T19:03:51.895Z,23.20
2018-06-09T19:06:22.504Z,23.20
2018-06-09T19:08:52.481Z,23.10
2018-06-09T19:11:22.738Z,23.10
2018-06-09T19:13:52.790Z,22.70
2018-06-09T19:16:22.657Z,22.50
2018-06-09T19:18:52.778Z,22.20
2018-06-09T19:21:23.082Z,22.20
2018-06-09T19:23:53.061Z,22.40
2018-06-09T19:26:23.221Z,22.50
2018-06-09T19:28:53.280Z,22.70
2018-06-09T19:31:24.393Z,22.80
2018-06-09T19:33:54.465Z,22.70
2018-06-09T19:38:53.775Z,22.60
2018-06-09T19:41:23.829Z,22.50
2018-06-09T19:43:53.792Z,22.30
2018-06-09T19:46:24.844Z,22.30
2018-06-09T19:48:54.065Z,22.20
2018-06-09T19:51:26.565Z,22.20
2018-06-09T19:53:56.931Z,21.50
2018-06-09T19:56:26.881Z,21.20
2018-06-09T19:58:57.548Z,21.40
2018-06-09T20:01:27.646Z,21.60
2018-06-09T20:03:57.847Z,21.70
2018-06-09T20:06:27.873Z,21.70
2018-06-09T20:08:58.132Z,21.70
2018-06-09T20:11:28.363Z,21.70
2018-06-09T20:13:58.741Z,21.60
2018-06-09T20:16:28.840Z,21.50
2018-06-09T20:18:59.361Z,21.50
2018-06-09T20:21:29.517Z,21.40
2018-06-09T20:23:59.571Z,21.40
2018-06-09T20:26:29.690Z,21.30
2018-06-09T20:29:00.377Z,21.30
2018-06-09T20:31:30.360Z,21.00
2018-06-09T20:34:00.471Z,20.90
2018-06-09T20:36:30.764Z,20.50
2018-06-09T20:39:02.313Z,20.60
2018-06-09T20:41:32.563Z,20.90
2018-06-09T20:44:03.013Z,21.00
2018-06-09T20:46:33.086Z,21.10
2018-06-09T20:49:03.127Z,20.80
2018-06-09T20:51:33.237Z,20.30
2018-06-09T20:54:03.393Z,20.50
2018-06-09T20:56:33.485Z,20.60
2018-06-09T20:59:04.047Z,20.60
2018-06-09T21:01:33.987Z,20.70
2018-06-09T21:04:03.905Z,20.60
2018-06-09T21:06:34.237Z,20.60
2018-06-09T21:09:04.882Z,20.60
2018-06-09T21:11:35.003Z,20.60
2018-06-09T21:14:05.152Z,20.60
2018-06-09T21:16:35.203Z,20.50
2018-06-09T21:19:05.503Z,20.60
2018-06-09T21:21:35.642Z,20.60
2018-06-09T21:24:05.742Z,20.50
2018-06-09T21:26:40.762Z,20.40
2018-06-09T21:29:12.906Z,20.40
2018-06-09T21:31:45.362Z,20.50
2018-06-09T21:34:31.379Z,20.00
2018-06-09T21:37:06.635Z,19.60
2018-06-09T21:39:41.751Z,19.40
2018-06-09T21:42:16.815Z,19.60
2018-06-09T21:44:52.838Z,19.90
2018-06-09T21:47:23.134Z,20.00
2018-06-09T21:49:53.024Z,19.90
2018-06-09T21:52:24.032Z,19.90
2018-06-09T21:54:54.357Z,19.90
2018-06-09T21:57:24.522Z,19.90
2018-06-09T21:59:54.584Z,19.80
2018-06-09T22:02:24.941Z,19.80
2018-06-09T22:04:55.879Z,19.90
2018-06-09T22:07:25.850Z,19.80
2018-06-09T22:09:56.099Z,19.80
2018-06-09T22:12:26.576Z,19.30
2018-06-09T22:14:57.396Z,19.00
2018-06-09T22:17:27.857Z,19.40
2018-06-09T22:19:58.237Z,19.20
2018-06-09T22:22:29.014Z,18.90
2018-06-09T22:25:00.622Z,19.10
2018-06-09T22:27:32.270Z,19.40
2018-06-09T22:30:03.776Z,19.50
2018-06-09T22:32:34.323Z,19.50
2018-06-09T22:35:04.321Z,19.40
2018-06-09T22:37:34.501Z,19.30
2018-06-09T22:40:04.530Z,19.30
2018-06-09T22:42:34.704Z,19.40
2018-06-09T22:45:04.955Z,19.40
2018-06-09T22:47:35.108Z,19.30
2018-06-09T22:50:05.422Z,19.20
2018-06-09T22:52:35.649Z,19.20
2018-06-09T22:55:06.379Z,18.80
2018-06-09T22:57:36.783Z,19.00
2018-06-09T23:00:07.425Z,19.10
2018-06-09T23:02:36.780Z,19.10
2018-06-09T23:05:05.977Z,18.80
2018-06-09T23:07:35.140Z,18.40
2018-06-09T23:10:04.327Z,18.80
2018-06-09T23:12:33.602Z,18.70
2018-06-09T23:15:02.774Z,18.60
2018-06-09T23:17:31.902Z,18.80
2018-06-09T23:20:01.090Z,18.80
2018-06-09T23:22:30.233Z,18.80
2018-06-09T23:24:59.394Z,18.80
2018-06-09T23:27:28.546Z,18.80
2018-06-09T23:29:57.726Z,18.80
2018-06-09T23:32:26.897Z,18.80
2018-06-09T23:34:56.087Z,18.70
2018-06-09T23:37:25.257Z,18.80
2018-06-09T23:39:54.433Z,18.70
2018-06-09T23:42:23.578Z,18.30
2018-06-09T23:44:52.756Z,18.10
2018-06-09T23:47:21.915Z,17.90
2018-06-09T23:49:51.079Z,18.10
2018-06-09T23:52:20.325Z,18.40
2018-06-09T23:54:49.531Z,18.70
2018-06-09T23:57:18.701Z,18.80
2018-06-09T23:59:47.865Z,18.90
